UUWW/VKO METAR and TAF weather

Enter ICAO airport designator
Station Type Date Time Source
UUWW METAR 2020/09/20 00:30 UTC NOAA

UUWW 200030Z 28004MPS CAVOK 06/03 Q1012 R24/000070 NOSIG


Station Type Date Time Source
UUWW Decoded METAR 2020/09/20 00:30 UTC NOAA

Moscow / Vnukovo , Russia (UUWW) 55-39N 037-16E
Sep 19, 2020 - 08:30 PM EDT / 2020.09.20 0030 UTC
Wind: from the W (280 degrees) at 9 MPH (8 KT):0
Visibility: greater than 7 mile(s):0
Temperature: 42 F (6 C)
Dew Point: 37 F (3 C)
Relative Humidity: 81%
Pressure (altimeter): 29.88 in. Hg (1012 hPa)
ob: UUWW 200030Z 28004MPS CAVOK 06/03 Q1012 R24/000070 NOSIG
cycle: 0

Station Type Date Time Source
UUWW TAF 2020/09/19 21:21 UTC NOAA

TAF UUWW 191956Z 1921/2021 28003G08MPS 9999 SCT020 TX13/2012Z TN05/2003Z
TEMPO 2006/2015 30008G15MPS

Example: see airport list